sensor_id;sensor_type;location;lat;lon;timestamp;temperature;humidity
11284;DHT22;5698;47.332;11.180;2023-02-21T00:00:27;3.80;85.60
11284;DHT22;5698;47.332;11.180;2023-02-21T00:03:11;3.80;85.80
11284;DHT22;5698;47.332;11.180;2023-02-21T00:05:56;3.80;86.00
11284;DHT22;5698;47.332;11.180;2023-02-21T00:08:40;3.80;85.90
11284;DHT22;5698;47.332;11.180;2023-02-21T00:11:24;3.70;85.80
11284;DHT22;5698;47.332;11.180;2023-02-21T00:14:10;3.70;85.90
11284;DHT22;5698;47.332;11.180;2023-02-21T00:16:54;3.70;85.80
11284;DHT22;5698;47.332;11.180;2023-02-21T00:19:39;3.70;86.00
11284;DHT22;5698;47.332;11.180;2023-02-21T00:22:23;3.70;85.80
11284;DHT22;5698;47.332;11.180;2023-02-21T00:25:07;3.60;85.90
11284;DHT22;5698;47.332;11.180;2023-02-21T00:27:52;3.60;86.00
11284;DHT22;5698;47.332;11.180;2023-02-21T00:30:37;3.50;85.70
11284;DHT22;5698;47.332;11.180;2023-02-21T00:33:21;3.50;86.00
11284;DHT22;5698;47.332;11.180;2023-02-21T00:36:06;3.50;85.50
11284;DHT22;5698;47.332;11.180;2023-02-21T00:38:51;3.50;85.90
11284;DHT22;5698;47.332;11.180;2023-02-21T00:41:35;3.50;86.00
11284;DHT22;5698;47.332;11.180;2023-02-21T00:44:19;3.60;85.90
11284;DHT22;5698;47.332;11.180;2023-02-21T00:47:04;3.60;86.00
11284;DHT22;5698;47.332;11.180;2023-02-21T00:49:49;3.50;85.90
11284;DHT22;5698;47.332;11.180;2023-02-21T00:52:33;3.50;85.90
11284;DHT22;5698;47.332;11.180;2023-02-21T00:55:17;3.50;86.20
11284;DHT22;5698;47.332;11.180;2023-02-21T00:58:01;3.40;86.10
11284;DHT22;5698;47.332;11.180;2023-02-21T01:00:45;3.50;86.10
11284;DHT22;5698;47.332;11.180;2023-02-21T01:03:31;3.40;86.40
11284;DHT22;5698;47.332;11.180;2023-02-21T01:06:16;3.40;86.60
11284;DHT22;5698;47.332;11.180;2023-02-21T01:09:00;3.40;86.20
11284;DHT22;5698;47.332;11.180;2023-02-21T01:11:44;3.30;86.30
11284;DHT22;5698;47.332;11.180;2023-02-21T01:14:29;3.30;86.30
11284;DHT22;5698;47.332;11.180;2023-02-21T01:17:13;3.30;86.50
11284;DHT22;5698;47.332;11.180;2023-02-21T01:20:00;3.30;86.90
11284;DHT22;5698;47.332;11.180;2023-02-21T01:22:45;3.20;87.00
11284;DHT22;5698;47.332;11.180;2023-02-21T01:25:30;3.10;86.80
11284;DHT22;5698;47.332;11.180;2023-02-21T01:28:14;3.10;86.80
11284;DHT22;5698;47.332;11.180;2023-02-21T01:30:58;3.10;87.10
11284;DHT22;5698;47.332;11.180;2023-02-21T01:33:42;3.00;87.30
11284;DHT22;5698;47.332;11.180;2023-02-21T01:36:28;3.00;87.30
11284;DHT22;5698;47.332;11.180;2023-02-21T01:39:13;3.00;87.30
11284;DHT22;5698;47.332;11.180;2023-02-21T01:41:57;3.00;87.20
11284;DHT22;5698;47.332;11.180;2023-02-21T01:44:43;3.00;87.10
11284;DHT22;5698;47.332;11.180;2023-02-21T01:47:28;2.90;87.30
11284;DHT22;5698;47.332;11.180;2023-02-21T01:50:17;2.90;87.60
11284;DHT22;5698;47.332;11.180;2023-02-21T01:53:07;2.80;87.90
11284;DHT22;5698;47.332;11.180;2023-02-21T01:55:54;2.80;87.60
11284;DHT22;5698;47.332;11.180;2023-02-21T01:58:40;2.80;87.60
11284;DHT22;5698;47.332;11.180;2023-02-21T02:01:32;2.80;87.50
11284;DHT22;5698;47.332;11.180;2023-02-21T02:04:18;2.80;87.70
11284;DHT22;5698;47.332;11.180;2023-02-21T02:07:03;2.80;87.50
11284;DHT22;5698;47.332;11.180;2023-02-21T02:09:48;2.80;87.80
11284;DHT22;5698;47.332;11.180;2023-02-21T02:13:00;2.80;87.80
11284;DHT22;5698;47.332;11.180;2023-02-21T02:15:48;2.80;87.80
11284;DHT22;5698;47.332;11.180;2023-02-21T02:18:36;2.70;87.80
11284;DHT22;5698;47.332;11.180;2023-02-21T02:21:48;2.70;87.80
11284;DHT22;5698;47.332;11.180;2023-02-21T02:27:52;2.70;87.40
11284;DHT22;5698;47.332;11.180;2023-02-21T02:30:48;2.70;87.50
11284;DHT22;5698;47.332;11.180;2023-02-21T02:36:19;2.70;87.30
11284;DHT22;5698;47.332;11.180;2023-02-21T02:38:54;2.70;87.10
11284;DHT22;5698;47.332;11.180;2023-02-21T02:41:28;2.70;87.30
11284;DHT22;5698;47.332;11.180;2023-02-21T02:44:01;2.70;87.30
11284;DHT22;5698;47.332;11.180;2023-02-21T02:46:30;2.70;87.30
11284;DHT22;5698;47.332;11.180;2023-02-21T02:49:01;2.70;87.30
11284;DHT22;5698;47.332;11.180;2023-02-21T02:51:32;2.80;87.00
11284;DHT22;5698;47.332;11.180;2023-02-21T02:54:00;2.80;87.10
11284;DHT22;5698;47.332;11.180;2023-02-21T02:56:27;2.80;87.20
11284;DHT22;5698;47.332;11.180;2023-02-21T02:58:57;2.80;87.20
11284;DHT22;5698;47.332;11.180;2023-02-21T03:01:48;2.80;87.20
11284;DHT22;5698;47.332;11.180;2023-02-21T03:07:24;2.80;87.50
11284;DHT22;5698;47.332;11.180;2023-02-21T03:10:01;2.80;86.40
11284;DHT22;5698;47.332;11.180;2023-02-21T03:12:33;2.80;86.50
11284;DHT22;5698;47.332;11.180;2023-02-21T03:15:06;2.80;86.70
11284;DHT22;5698;47.332;11.180;2023-02-21T03:17:39;2.80;87.10
11284;DHT22;5698;47.332;11.180;2023-02-21T03:20:09;2.80;86.40
11284;DHT22;5698;47.332;11.180;2023-02-21T03:22:39;2.80;87.80
11284;DHT22;5698;47.332;11.180;2023-02-21T03:25:09;2.80;86.60
11284;DHT22;5698;47.332;11.180;2023-02-21T03:27:38;2.80;86.50
11284;DHT22;5698;47.332;11.180;2023-02-21T03:30:08;2.80;86.50
11284;DHT22;5698;47.332;11.180;2023-02-21T03:32:37;2.80;86.70
11284;DHT22;5698;47.332;11.180;2023-02-21T03:35:06;2.80;86.50
11284;DHT22;5698;47.332;11.180;2023-02-21T03:37:35;2.80;86.20
11284;DHT22;5698;47.332;11.180;2023-02-21T03:40:06;2.80;85.90
11284;DHT22;5698;47.332;11.180;2023-02-21T03:42:33;2.80;85.90
11284;DHT22;5698;47.332;11.180;2023-02-21T03:45:00;2.80;85.60
11284;DHT22;5698;47.332;11.180;2023-02-21T03:47:27;2.80;85.30
11284;DHT22;5698;47.332;11.180;2023-02-21T03:49:54;2.90;85.30
11284;DHT22;5698;47.332;11.180;2023-02-21T03:52:22;2.90;85.60
11284;DHT22;5698;47.332;11.180;2023-02-21T03:54:49;2.90;85.80
11284;DHT22;5698;47.332;11.180;2023-02-21T03:57:17;2.90;85.60
11284;DHT22;5698;47.332;11.180;2023-02-21T03:59:44;2.80;85.00
11284;DHT22;5698;47.332;11.180;2023-02-21T04:02:11;2.80;84.80
11284;DHT22;5698;47.332;11.180;2023-02-21T04:04:38;2.80;84.80
11284;DHT22;5698;47.332;11.180;2023-02-21T04:07:06;2.80;84.90
11284;DHT22;5698;47.332;11.180;2023-02-21T04:09:33;2.80;84.80
11284;DHT22;5698;47.332;11.180;2023-02-21T04:12:00;2.80;84.80
11284;DHT22;5698;47.332;11.180;2023-02-21T04:14:28;2.80;84.80
11284;DHT22;5698;47.332;11.180;2023-02-21T04:16:55;2.80;84.80
11284;DHT22;5698;47.332;11.180;2023-02-21T04:19:22;2.80;84.60
11284;DHT22;5698;47.332;11.180;2023-02-21T04:21:49;2.70;84.50
11284;DHT22;5698;47.332;11.180;2023-02-21T04:24:16;2.70;84.50
11284;DHT22;5698;47.332;11.180;2023-02-21T04:26:43;2.70;84.70
11284;DHT22;5698;47.332;11.180;2023-02-21T04:29:10;2.70;84.80
11284;DHT22;5698;47.332;11.180;2023-02-21T04:31:39;2.70;84.50
11284;DHT22;5698;47.332;11.180;2023-02-21T04:34:06;2.60;84.90
11284;DHT22;5698;47.332;11.180;2023-02-21T04:36:33;2.60;85.10
11284;DHT22;5698;47.332;11.180;2023-02-21T04:39:02;2.60;85.30
11284;DHT22;5698;47.332;11.180;2023-02-21T04:41:29;2.50;85.30
11284;DHT22;5698;47.332;11.180;2023-02-21T04:43:56;2.50;85.00
11284;DHT22;5698;47.332;11.180;2023-02-21T04:46:23;2.40;85.00
11284;DHT22;5698;47.332;11.180;2023-02-21T04:48:52;2.30;84.80
11284;DHT22;5698;47.332;11.180;2023-02-21T04:51:21;2.30;85.30
11284;DHT22;5698;47.332;11.180;2023-02-21T04:53:49;2.20;85.40
11284;DHT22;5698;47.332;11.180;2023-02-21T04:56:18;2.20;85.40
11284;DHT22;5698;47.332;11.180;2023-02-21T04:58:46;2.10;85.50
11284;DHT22;5698;47.332;11.180;2023-02-21T05:01:14;2.10;85.50
11284;DHT22;5698;47.332;11.180;2023-02-21T05:03:42;2.10;85.70
11284;DHT22;5698;47.332;11.180;2023-02-21T05:06:16;2.10;86.10
11284;DHT22;5698;47.332;11.180;2023-02-21T05:08:43;2.10;86.10
11284;DHT22;5698;47.332;11.180;2023-02-21T05:11:10;2.00;86.40
11284;DHT22;5698;47.332;11.180;2023-02-21T05:13:37;1.90;87.10
11284;DHT22;5698;47.332;11.180;2023-02-21T05:16:05;1.80;87.10
11284;DHT22;5698;47.332;11.180;2023-02-21T05:18:32;1.80;86.60
11284;DHT22;5698;47.332;11.180;2023-02-21T05:20:59;1.80;86.20
11284;DHT22;5698;47.332;11.180;2023-02-21T05:23:27;1.80;86.00
11284;DHT22;5698;47.332;11.180;2023-02-21T05:26:00;1.70;85.80
11284;DHT22;5698;47.332;11.180;2023-02-21T05:28:27;1.70;86.30
11284;DHT22;5698;47.332;11.180;2023-02-21T05:30:54;1.70;86.50
11284;DHT22;5698;47.332;11.180;2023-02-21T05:33:21;1.70;86.50
11284;DHT22;5698;47.332;11.180;2023-02-21T05:35:48;1.70;86.50
11284;DHT22;5698;47.332;11.180;2023-02-21T05:38:16;1.70;86.90
11284;DHT22;5698;47.332;11.180;2023-02-21T05:40:45;1.70;86.90
11284;DHT22;5698;47.332;11.180;2023-02-21T05:43:12;1.60;86.80
11284;DHT22;5698;47.332;11.180;2023-02-21T05:45:39;1.60;87.00
11284;DHT22;5698;47.332;11.180;2023-02-21T05:48:07;1.50;86.70
11284;DHT22;5698;47.332;11.180;2023-02-21T05:50:34;1.50;87.70
11284;DHT22;5698;47.332;11.180;2023-02-21T05:53:01;1.40;88.50
11284;DHT22;5698;47.332;11.180;2023-02-21T05:55:28;1.40;87.60
11284;DHT22;5698;47.332;11.180;2023-02-21T05:57:56;1.40;87.20
11284;DHT22;5698;47.332;11.180;2023-02-21T06:00:26;1.40;87.10
11284;DHT22;5698;47.332;11.180;2023-02-21T06:02:53;1.40;87.30
11284;DHT22;5698;47.332;11.180;2023-02-21T06:05:22;1.40;87.70
11284;DHT22;5698;47.332;11.180;2023-02-21T06:07:49;1.30;88.80
11284;DHT22;5698;47.332;11.180;2023-02-21T06:10:17;1.30;88.00
11284;DHT22;5698;47.332;11.180;2023-02-21T06:12:44;1.20;87.90
11284;DHT22;5698;47.332;11.180;2023-02-21T06:15:12;1.20;87.40
11284;DHT22;5698;47.332;11.180;2023-02-21T06:17:40;1.20;87.50
11284;DHT22;5698;47.332;11.180;2023-02-21T06:20:10;1.20;87.40
11284;DHT22;5698;47.332;11.180;2023-02-21T06:22:38;1.20;87.70
11284;DHT22;5698;47.332;11.180;2023-02-21T06:25:06;1.20;87.40
11284;DHT22;5698;47.332;11.180;2023-02-21T06:27:33;1.20;87.40
11284;DHT22;5698;47.332;11.180;2023-02-21T06:30:01;1.20;87.40
11284;DHT22;5698;47.332;11.180;2023-02-21T06:32:29;1.20;87.50
11284;DHT22;5698;47.332;11.180;2023-02-21T06:34:56;1.20;87.50
11284;DHT22;5698;47.332;11.180;2023-02-21T06:37:23;1.20;87.50
11284;DHT22;5698;47.332;11.180;2023-02-21T06:39:50;1.20;87.50
11284;DHT22;5698;47.332;11.180;2023-02-21T06:42:18;1.20;87.50
11284;DHT22;5698;47.332;11.180;2023-02-21T06:44:46;1.20;88.60
11284;DHT22;5698;47.332;11.180;2023-02-21T06:47:14;1.20;88.60
11284;DHT22;5698;47.332;11.180;2023-02-21T06:49:43;1.20;88.30
11284;DHT22;5698;47.332;11.180;2023-02-21T06:52:10;1.20;88.10
11284;DHT22;5698;47.332;11.180;2023-02-21T06:54:37;1.30;88.20
11284;DHT22;5698;47.332;11.180;2023-02-21T06:57:04;1.30;88.20
11284;DHT22;5698;47.332;11.180;2023-02-21T06:59:31;1.30;88.50
11284;DHT22;5698;47.332;11.180;2023-02-21T07:01:58;1.30;88.60
11284;DHT22;5698;47.332;11.180;2023-02-21T07:04:27;1.30;88.30
11284;DHT22;5698;47.332;11.180;2023-02-21T07:06:55;1.30;88.30
11284;DHT22;5698;47.332;11.180;2023-02-21T07:09:22;1.30;87.90
11284;DHT22;5698;47.332;11.180;2023-02-21T07:11:49;1.30;88.00
11284;DHT22;5698;47.332;11.180;2023-02-21T07:14:16;1.30;88.20
11284;DHT22;5698;47.332;11.180;2023-02-21T07:16:43;1.30;88.20
11284;DHT22;5698;47.332;11.180;2023-02-21T07:19:11;1.30;88.50
11284;DHT22;5698;47.332;11.180;2023-02-21T07:21:40;1.40;88.50
11284;DHT22;5698;47.332;11.180;2023-02-21T07:24:08;1.50;88.50
11284;DHT22;5698;47.332;11.180;2023-02-21T07:26:36;1.70;88.90
11284;DHT22;5698;47.332;11.180;2023-02-21T07:29:03;2.10;89.60
11284;DHT22;5698;47.332;11.180;2023-02-21T07:31:31;2.50;89.20
11284;DHT22;5698;47.332;11.180;2023-02-21T07:33:58;3.00;90.20
11284;DHT22;5698;47.332;11.180;2023-02-21T07:36:25;3.30;88.60
11284;DHT22;5698;47.332;11.180;2023-02-21T07:38:52;3.80;87.80
11284;DHT22;5698;47.332;11.180;2023-02-21T07:41:20;4.40;89.60
11284;DHT22;5698;47.332;11.180;2023-02-21T07:43:47;5.00;87.40
11284;DHT22;5698;47.332;11.180;2023-02-21T07:46:15;5.60;88.00
11284;DHT22;5698;47.332;11.180;2023-02-21T07:48:42;6.10;89.80
11284;DHT22;5698;47.332;11.180;2023-02-21T07:51:10;6.80;88.60
11284;DHT22;5698;47.332;11.180;2023-02-21T07:53:37;7.40;87.40
11284;DHT22;5698;47.332;11.180;2023-02-21T07:56:04;7.90;85.50
11284;DHT22;5698;47.332;11.180;2023-02-21T07:58:33;8.50;83.60
11284;DHT22;5698;47.332;11.180;2023-02-21T08:01:02;9.00;82.30
11284;DHT22;5698;47.332;11.180;2023-02-21T08:03:29;9.60;83.30
11284;DHT22;5698;47.332;11.180;2023-02-21T08:05:57;10.20;81.00
11284;DHT22;5698;47.332;11.180;2023-02-21T08:08:24;10.50;67.20
11284;DHT22;5698;47.332;11.180;2023-02-21T08:10:51;10.90;68.10
11284;DHT22;5698;47.332;11.180;2023-02-21T08:13:18;10.90;67.00
11284;DHT22;5698;47.332;11.180;2023-02-21T08:15:46;11.20;67.60
11284;DHT22;5698;47.332;11.180;2023-02-21T08:18:14;11.50;64.30
11284;DHT22;5698;47.332;11.180;2023-02-21T08:20:45;11.90;71.20
11284;DHT22;5698;47.332;11.180;2023-02-21T08:23:12;12.20;61.40
11284;DHT22;5698;47.332;11.180;2023-02-21T08:25:39;12.70;65.30
11284;DHT22;5698;47.332;11.180;2023-02-21T08:28:06;13.10;63.30
11284;DHT22;5698;47.332;11.180;2023-02-21T08:30:33;13.10;56.00
11284;DHT22;5698;47.332;11.180;2023-02-21T08:33:02;13.20;57.70
11284;DHT22;5698;47.332;11.180;2023-02-21T08:35:29;13.00;55.30
11284;DHT22;5698;47.332;11.180;2023-02-21T08:37:56;13.00;55.60
11284;DHT22;5698;47.332;11.180;2023-02-21T08:40:28;12.60;54.80
11284;DHT22;5698;47.332;11.180;2023-02-21T08:42:57;12.60;54.80
11284;DHT22;5698;47.332;11.180;2023-02-21T08:45:25;12.30;53.80
11284;DHT22;5698;47.332;11.180;2023-02-21T08:47:53;12.20;54.10
11284;DHT22;5698;47.332;11.180;2023-02-21T08:50:23;12.30;53.70
11284;DHT22;5698;47.332;11.180;2023-02-21T08:52:50;12.50;53.70
11284;DHT22;5698;47.332;11.180;2023-02-21T08:55:18;12.70;51.80
11284;DHT22;5698;47.332;11.180;2023-02-21T08:57:47;12.70;51.20
11284;DHT22;5698;47.332;11.180;2023-02-21T09:00:16;13.00;51.30
11284;DHT22;5698;47.332;11.180;2023-02-21T09:02:43;13.00;51.20
11284;DHT22;5698;47.332;11.180;2023-02-21T09:05:12;13.10;50.10
11284;DHT22;5698;47.332;11.180;2023-02-21T09:07:41;12.80;49.90
11284;DHT22;5698;47.332;11.180;2023-02-21T09:10:09;12.70;51.20
11284;DHT22;5698;47.332;11.180;2023-02-21T09:12:36;13.20;52.30
11284;DHT22;5698;47.332;11.180;2023-02-21T09:15:05;13.80;49.10
11284;DHT22;5698;47.332;11.180;2023-02-21T09:17:33;13.90;47.60
11284;DHT22;5698;47.332;11.180;2023-02-21T09:20:01;14.20;47.20
11284;DHT22;5698;47.332;11.180;2023-02-21T09:22:31;14.20;48.40
11284;DHT22;5698;47.332;11.180;2023-02-21T09:25:00;14.30;48.40
11284;DHT22;5698;47.332;11.180;2023-02-21T09:27:27;14.40;47.80
11284;DHT22;5698;47.332;11.180;2023-02-21T09:30:04;14.50;46.00
11284;DHT22;5698;47.332;11.180;2023-02-21T09:32:31;14.80;47.40
11284;DHT22;5698;47.332;11.180;2023-02-21T09:34:58;15.00;45.40
11284;DHT22;5698;47.332;11.180;2023-02-21T09:37:26;14.90;44.80
11284;DHT22;5698;47.332;11.180;2023-02-21T09:39:53;14.60;44.90
11284;DHT22;5698;47.332;11.180;2023-02-21T09:42:27;14.50;45.20
11284;DHT22;5698;47.332;11.180;2023-02-21T09:44:54;14.60;46.00
11284;DHT22;5698;47.332;11.180;2023-02-21T09:47:26;14.90;45.20
11284;DHT22;5698;47.332;11.180;2023-02-21T09:49:58;15.00;45.10
11284;DHT22;5698;47.332;11.180;2023-02-21T09:52:31;15.40;44.40
11284;DHT22;5698;47.332;11.180;2023-02-21T09:55:02;15.60;44.30
11284;DHT22;5698;47.332;11.180;2023-02-21T09:57:31;15.60;42.80
11284;DHT22;5698;47.332;11.180;2023-02-21T09:59:58;16.10;42.30
11284;DHT22;5698;47.332;11.180;2023-02-21T10:02:39;16.30;41.20
11284;DHT22;5698;47.332;11.180;2023-02-21T10:05:17;16.00;42.90
11284;DHT22;5698;47.332;11.180;2023-02-21T10:07:53;16.30;41.20
11284;DHT22;5698;47.332;11.180;2023-02-21T10:10:29;15.80;40.60
11284;DHT22;5698;47.332;11.180;2023-02-21T10:13:06;16.00;41.30
11284;DHT22;5698;47.332;11.180;2023-02-21T10:15:41;16.40;40.00
11284;DHT22;5698;47.332;11.180;2023-02-21T10:18:18;16.90;42.00
11284;DHT22;5698;47.332;11.180;2023-02-21T10:20:50;17.50;44.10
11284;DHT22;5698;47.332;11.180;2023-02-21T10:23:20;17.90;40.90
11284;DHT22;5698;47.332;11.180;2023-02-21T10:25:52;17.50;40.60
11284;DHT22;5698;47.332;11.180;2023-02-21T10:28:23;17.80;44.10
11284;DHT22;5698;47.332;11.180;2023-02-21T10:30:53;18.30;44.00
11284;DHT22;5698;47.332;11.180;2023-02-21T10:33:21;18.70;44.20
11284;DHT22;5698;47.332;11.180;2023-02-21T10:35:48;19.10;44.60
11284;DHT22;5698;47.332;11.180;2023-02-21T10:38:20;19.40;43.50
11284;DHT22;5698;47.332;11.180;2023-02-21T10:40:52;19.90;39.40
11284;DHT22;5698;47.332;11.180;2023-02-21T10:43:24;20.40;41.00
11284;DHT22;5698;47.332;11.180;2023-02-21T10:45:58;20.60;37.90
11284;DHT22;5698;47.332;11.180;2023-02-21T10:48:31;20.90;36.90
11284;DHT22;5698;47.332;11.180;2023-02-21T10:51:08;21.10;37.50
11284;DHT22;5698;47.332;11.180;2023-02-21T10:53:36;21.30;35.70
11284;DHT22;5698;47.332;11.180;2023-02-21T10:56:24;21.40;35.60
11284;DHT22;5698;47.332;11.180;2023-02-21T10:58:56;21.60;34.70
11284;DHT22;5698;47.332;11.180;2023-02-21T11:01:35;21.70;33.90
11284;DHT22;5698;47.332;11.180;2023-02-21T11:04:05;21.60;33.60
11284;DHT22;5698;47.332;11.180;2023-02-21T11:06:35;21.70;34.70
11284;DHT22;5698;47.332;11.180;2023-02-21T11:09:27;21.90;34.70
11284;DHT22;5698;47.332;11.180;2023-02-21T11:12:00;22.00;35.40
11284;DHT22;5698;47.332;11.180;2023-02-21T11:14:32;22.20;37.50
11284;DHT22;5698;47.332;11.180;2023-02-21T11:17:15;22.30;35.40
11284;DHT22;5698;47.332;11.180;2023-02-21T11:19:48;22.30;33.10
11284;DHT22;5698;47.332;11.180;2023-02-21T11:22:17;22.50;33.00
11284;DHT22;5698;47.332;11.180;2023-02-21T11:24:57;22.60;34.00
11284;DHT22;5698;47.332;11.180;2023-02-21T11:27:26;22.70;32.60
11284;DHT22;5698;47.332;11.180;2023-02-21T11:29:57;22.80;32.50
11284;DHT22;5698;47.332;11.180;2023-02-21T11:32:29;23.10;33.50
11284;DHT22;5698;47.332;11.180;2023-02-21T11:35:05;23.10;32.40
11284;DHT22;5698;47.332;11.180;2023-02-21T11:37:34;23.00;31.40
11284;DHT22;5698;47.332;11.180;2023-02-21T11:40:22;22.90;31.20
11284;DHT22;5698;47.332;11.180;2023-02-21T11:42:49;22.90;33.70
11284;DHT22;5698;47.332;11.180;2023-02-21T11:45:23;22.90;33.80
11284;DHT22;5698;47.332;11.180;2023-02-21T11:47:58;22.90;33.80
11284;DHT22;5698;47.332;11.180;2023-02-21T11:50:29;22.80;33.30
11284;DHT22;5698;47.332;11.180;2023-02-21T11:53:05;22.70;33.20
11284;DHT22;5698;47.332;11.180;2023-02-21T11:55:35;22.60;33.20
11284;DHT22;5698;47.332;11.180;2023-02-21T11:58:11;22.70;32.80
11284;DHT22;5698;47.332;11.180;2023-02-21T12:00:47;22.70;33.00
11284;DHT22;5698;47.332;11.180;2023-02-21T12:03:55;22.90;31.30
11284;DHT22;5698;47.332;11.180;2023-02-21T12:06:31;23.00;30.80
11284;DHT22;5698;47.332;11.180;2023-02-21T12:09:06;23.00;31.20
11284;DHT22;5698;47.332;11.180;2023-02-21T12:11:43;23.30;33.50
11284;DHT22;5698;47.332;11.180;2023-02-21T12:14:33;23.40;31.10
11284;DHT22;5698;47.332;11.180;2023-02-21T12:17:13;23.50;31.70
11284;DHT22;5698;47.332;11.180;2023-02-21T12:20:05;23.40;31.90
11284;DHT22;5698;47.332;11.180;2023-02-21T12:22:50;23.50;31.50
11284;DHT22;5698;47.332;11.180;2023-02-21T12:25:28;23.50;31.50
11284;DHT22;5698;47.332;11.180;2023-02-21T12:28:04;23.50;30.00
11284;DHT22;5698;47.332;11.180;2023-02-21T12:30:52;23.50;32.60
11284;DHT22;5698;47.332;11.180;2023-02-21T12:33:31;23.70;31.80
11284;DHT22;5698;47.332;11.180;2023-02-21T12:36:20;23.70;31.10
11284;DHT22;5698;47.332;11.180;2023-02-21T12:38:59;23.70;31.00
11284;DHT22;5698;47.332;11.180;2023-02-21T12:41:57;23.60;30.50
11284;DHT22;5698;47.332;11.180;2023-02-21T12:44:30;23.40;30.80
11284;DHT22;5698;47.332;11.180;2023-02-21T12:47:02;23.40;30.40
11284;DHT22;5698;47.332;11.180;2023-02-21T12:49:42;23.30;29.50
11284;DHT22;5698;47.332;11.180;2023-02-21T12:52:15;23.40;30.20
11284;DHT22;5698;47.332;11.180;2023-02-21T12:54:48;23.30;30.00
11284;DHT22;5698;47.332;11.180;2023-02-21T12:57:20;23.30;32.20
11284;DHT22;5698;47.332;11.180;2023-02-21T12:59:57;23.40;31.00
11284;DHT22;5698;47.332;11.180;2023-02-21T13:02:37;23.30;30.30
11284;DHT22;5698;47.332;11.180;2023-02-21T13:05:12;23.20;30.00
11284;DHT22;5698;47.332;11.180;2023-02-21T13:07:44;23.20;32.40
11284;DHT22;5698;47.332;11.180;2023-02-21T13:10:15;23.20;32.60
11284;DHT22;5698;47.332;11.180;2023-02-21T13:12:48;23.30;33.90
11284;DHT22;5698;47.332;11.180;2023-02-21T13:15:19;22.80;31.40
11284;DHT22;5698;47.332;11.180;2023-02-21T13:17:55;22.60;34.10
11284;DHT22;5698;47.332;11.180;2023-02-21T13:20:28;21.50;32.60
11284;DHT22;5698;47.332;11.180;2023-02-21T13:23:15;21.10;34.30
11284;DHT22;5698;47.332;11.180;2023-02-21T13:26:13;21.10;33.20
11284;DHT22;5698;47.332;11.180;2023-02-21T13:28:43;21.30;35.20
11284;DHT22;5698;47.332;11.180;2023-02-21T13:31:18;21.50;35.80
11284;DHT22;5698;47.332;11.180;2023-02-21T13:33:49;21.20;33.40
11284;DHT22;5698;47.332;11.180;2023-02-21T13:36:23;20.80;34.30
11284;DHT22;5698;47.332;11.180;2023-02-21T13:39:04;20.60;34.10
11284;DHT22;5698;47.332;11.180;2023-02-21T13:41:37;20.40;36.10
11284;DHT22;5698;47.332;11.180;2023-02-21T13:44:07;20.10;35.40
11284;DHT22;5698;47.332;11.180;2023-02-21T13:47:01;19.90;34.60
11284;DHT22;5698;47.332;11.180;2023-02-21T13:49:50;18.60;33.30
11284;DHT22;5698;47.332;11.180;2023-02-21T13:52:34;18.00;39.70
11284;DHT22;5698;47.332;11.180;2023-02-21T13:55:29;17.70;37.20
11284;DHT22;5698;47.332;11.180;2023-02-21T14:07:09;16.60;42.90
11284;DHT22;5698;47.332;11.180;2023-02-21T14:09:39;16.20;43.80
11284;DHT22;5698;47.332;11.180;2023-02-21T14:12:07;15.60;42.40
11284;DHT22;5698;47.332;11.180;2023-02-21T14:14:38;14.80;41.50
11284;DHT22;5698;47.332;11.180;2023-02-21T14:17:08;14.70;43.50
11284;DHT22;5698;47.332;11.180;2023-02-21T14:19:41;14.30;41.10
11284;DHT22;5698;47.332;11.180;2023-02-21T14:22:12;13.90;42.70
11284;DHT22;5698;47.332;11.180;2023-02-21T14:24:44;13.80;43.90
11284;DHT22;5698;47.332;11.180;2023-02-21T14:27:34;13.60;44.50
11284;DHT22;5698;47.332;11.180;2023-02-21T14:30:23;13.70;46.50
11284;DHT22;5698;47.332;11.180;2023-02-21T14:32:52;13.60;46.70
11284;DHT22;5698;47.332;11.180;2023-02-21T14:35:30;13.60;48.60
11284;DHT22;5698;47.332;11.180;2023-02-21T14:38:00;13.50;48.20
11284;DHT22;5698;47.332;11.180;2023-02-21T14:40:34;13.40;49.70
11284;DHT22;5698;47.332;11.180;2023-02-21T14:49:51;12.90;50.30
11284;DHT22;5698;47.332;11.180;2023-02-21T14:52:49;12.70;51.60
11284;DHT22;5698;47.332;11.180;2023-02-21T14:55:49;12.40;51.50
11284;DHT22;5698;47.332;11.180;2023-02-21T14:58:46;12.00;49.80
11284;DHT22;5698;47.332;11.180;2023-02-21T15:01:35;11.80;50.00
11284;DHT22;5698;47.332;11.180;2023-02-21T15:04:16;11.60;52.10
11284;DHT22;5698;47.332;11.180;2023-02-21T15:06:54;11.50;52.90
11284;DHT22;5698;47.332;11.180;2023-02-21T15:09:24;11.30;53.30
11284;DHT22;5698;47.332;11.180;2023-02-21T15:11:53;11.20;53.20
11284;DHT22;5698;47.332;11.180;2023-02-21T15:14:23;11.10;54.00
11284;DHT22;5698;47.332;11.180;2023-02-21T15:16:53;11.00;53.50
11284;DHT22;5698;47.332;11.180;2023-02-21T15:19:25;11.00;53.70
11284;DHT22;5698;47.332;11.180;2023-02-21T15:22:11;10.90;54.70
11284;DHT22;5698;47.332;11.180;2023-02-21T15:24:40;10.80;54.70
11284;DHT22;5698;47.332;11.180;2023-02-21T15:27:09;10.60;54.50
11284;DHT22;5698;47.332;11.180;2023-02-21T15:29:36;10.50;54.70
11284;DHT22;5698;47.332;11.180;2023-02-21T15:32:04;10.40;55.10
11284;DHT22;5698;47.332;11.180;2023-02-21T15:34:35;10.30;54.50
11284;DHT22;5698;47.332;11.180;2023-02-21T15:37:10;10.20;55.90
11284;DHT22;5698;47.332;11.180;2023-02-21T15:39:42;10.10;55.80
11284;DHT22;5698;47.332;11.180;2023-02-21T15:42:13;10.00;56.20
11284;DHT22;5698;47.332;11.180;2023-02-21T15:44:44;9.90;56.50
11284;DHT22;5698;47.332;11.180;2023-02-21T15:47:14;9.80;56.90
11284;DHT22;5698;47.332;11.180;2023-02-21T15:49:45;9.70;56.40
11284;DHT22;5698;47.332;11.180;2023-02-21T15:52:27;9.50;56.90
11284;DHT22;5698;47.332;11.180;2023-02-21T15:55:13;9.40;56.70
11284;DHT22;5698;47.332;11.180;2023-02-21T15:57:42;9.20;56.80
11284;DHT22;5698;47.332;11.180;2023-02-21T16:00:27;9.10;56.90
11284;DHT22;5698;47.332;11.180;2023-02-21T16:03:32;9.10;57.90
11284;DHT22;5698;47.332;11.180;2023-02-21T16:06:17;9.00;58.40
11284;DHT22;5698;47.332;11.180;2023-02-21T16:08:57;8.80;58.50
11284;DHT22;5698;47.332;11.180;2023-02-21T16:11:42;8.70;58.80
11284;DHT22;5698;47.332;11.180;2023-02-21T16:14:17;8.50;59.10
11284;DHT22;5698;47.332;11.180;2023-02-21T16:16:45;8.50;59.20
11284;DHT22;5698;47.332;11.180;2023-02-21T16:19:19;8.40;60.60
11284;DHT22;5698;47.332;11.180;2023-02-21T16:21:47;8.30;62.60
11284;DHT22;5698;47.332;11.180;2023-02-21T16:24:30;8.20;62.00
11284;DHT22;5698;47.332;11.180;2023-02-21T16:27:10;8.10;62.80
11284;DHT22;5698;47.332;11.180;2023-02-21T16:29:39;8.00;62.00
11284;DHT22;5698;47.332;11.180;2023-02-21T16:32:08;7.90;61.70
11284;DHT22;5698;47.332;11.180;2023-02-21T16:34:40;7.90;62.50
11284;DHT22;5698;47.332;11.180;2023-02-21T16:37:11;7.90;62.50
11284;DHT22;5698;47.332;11.180;2023-02-21T16:39:39;7.80;62.70
11284;DHT22;5698;47.332;11.180;2023-02-21T16:42:06;7.80;63.90
11284;DHT22;5698;47.332;11.180;2023-02-21T16:44:33;7.70;63.60
11284;DHT22;5698;47.332;11.180;2023-02-21T16:47:01;7.60;63.50